TFM - Tactical Decision Aid
ID: Runway Winds: CIG/VIS Threshold:

KLAR - Laramie Rgnl, WY, US

Updated at: 0659 UTC 03 Aug 2021
Latest TAF at: 0520 UTC 03 Aug 2021

TAF Board

Time<<03/19Z 03/20Z 03/21Z 03/22Z 03/23Z 04/00Z 04/01Z 04/02Z 04/03Z 04/04Z 04/05Z 04/06Z 04/07Z>>
Type PRVL
  [TEMP]  
PRVL
  [TEMP]  
PRVL
  [TEMP]  
PRVL PRVL PRVL PRVL PRVL PRVL PRVL PRVL
VIS >6
  [4]  
>6
  [4]  
>6
  [4]  
>6 >6 >6 >6 >6 >6 >6 >6
CIG 60
  [45]  
60
  [45]  
60
  [45]  
60 60 80 80 80 80 80 80
Cover BKN
  [BKN]  
BKN
  [BKN]  
BKN
  [BKN]  
BKN BKN BKN BKN BKN BKN BKN BKN
FltCat VFR
  [MVFR]  
VFR
  [MVFR]  
VFR
  [MVFR]  
VFR VFR VFR VFR VFR VFR VFR VFR
WX VCTS
  [TSRA]  
VCTS
  [TSRA]  
VCTS
  [TSRA]  
VCTS VCTS VCTS VCTS VCTS VCTS VCTS VCTS
WDir 290
[VRB]
290
[VRB]
290
[VRB]
290 290 310 310 310 310 310 310
WSpd 11
  [20]  
11
  [20]  
11
  [20]  
11 11 10 10 10 10 10 10
WGst --
  [30]  
--
  [30]  
--
  [30]  
-- -- -- -- -- -- -- --

TDA Impact Legend

  None Marginal Slight Moderate High
Visibility (sm) >5 3≤X≤5 2≤X<3 1≤X<2 <1
Ceiling (100 ft) >30 10≤X≤30 8≤X<10 3≤X<8 <3
Wind Speed (kt) <15 15≤X<25 25≤X<30 ≥30
Wind Gust (kt) <15 15≤X<25 25≤X<35 ≥35
Weather No Wx Reported VCTS -TS,-FZRA TS,FZRA +TS,+FZRA
TAF
KLAR 030520Z 0306/0406 26007KT P6SM BKN150
  FM031200 29009KT P6SM BKN080
  FM031800 29011KT P6SM VCTS BKN060CB
  TEMPO 0318/0322 VRB20G30KT 4SM TSRA BKN045CB
  FM040000 31010KT P6SM VCTS BKN080CB


Radar Display
Forecast Discussion